Overview Statistics Trail Chart Weather Telemetry Raw packets
 

This is the latest recevied weather packets stored in our database for station/object KE5QKR. If no packets are shown the sender has not sent any weather packets the latest 10 day(s).

<< 104 105 106 107 108 >>
Time Temp. Humidity Pressure Rain* Wind** Luminosity Snow
1777115830 17.22° C 99% 1010.4 hPa 36.58 mm - 0 W/m² -
1777115526 17.22° C 99% 1010.9 hPa 40.89 mm - 0 W/m² -
1777115223 17.78° C 99% 1011.5 hPa 44.45 mm - 0 W/m² -
1777114920 18.33° C 99% 1011.9 hPa 30.73 mm - 0 W/m² -
1777114616 19.44° C 99% 1010.6 hPa 6.1 mm - 0 W/m² -
1777114315 20.56° C 99% 1008.1 hPa 0 mm - 0 W/m² -
1777114012 20.56° C 99% 1007.6 hPa 0 mm - 0 W/m² -
1777113708 20.56° C 99% 1007.2 hPa 0 mm - 0 W/m² -
1777113407 20.56° C 99% 1007.1 hPa 0 mm - 0 W/m² -
1777113106 20.56° C 99% 1007.1 hPa 0 mm - 0 W/m² -
1777112803 20.56° C 99% 1007 hPa 0 mm - 0 W/m² -
1777112499 20.56° C 99% 1007 hPa 0 mm - 0 W/m² -
1777112196 20.56° C 99% 1006.9 hPa 0 mm - 0 W/m² -
1777111892 20.56° C 99% 1006.8 hPa 0 mm - 0 W/m² -
1777111590 20.56° C 99% 1006.6 hPa 0 mm - 0 W/m² -
1777111286 20.56° C 99% 1006.7 hPa 0 mm - 0 W/m² -
1777110981 20.56° C 99% 1006.9 hPa 0 mm - 0 W/m² -
1777110679 20.56° C 99% 1007 hPa 0 mm - 0 W/m² -
1777110374 20.56° C 99% 1007.3 hPa 0 mm - 0 W/m² -
1777110069 20.56° C 99% 1007.4 hPa 0 mm - 0 W/m² -
1777109764 20.56° C 99% 1007.7 hPa 0 mm - 0 W/m² -
1777109455 20° C 99% 1007.6 hPa 0 mm - 0 W/m² -
1777109152 20.56° C 99% 1007.5 hPa 0 mm - 0 W/m² -
1777108851 20.56° C 99% 1007.6 hPa 0 mm - 0 W/m² -
1777108549 20.56° C 99% 1007.7 hPa 0 mm - 0 W/m² -

* Rain latest hour (hover to see other rain measurements)
** Current wind speed in m/s (hover to see current wind gust speed)